createdAt,value
2018-12-16T00:00:44.152Z,-1.00
2018-12-16T00:03:12.437Z,-1.00
2018-12-16T00:05:40.838Z,-1.00
2018-12-16T00:08:09.375Z,-0.90
2018-12-16T00:10:37.548Z,-1.00
2018-12-16T00:13:05.783Z,-0.90
2018-12-16T00:15:35.564Z,-0.90
2018-12-16T00:18:03.760Z,-0.90
2018-12-16T00:20:32.190Z,-0.90
2018-12-16T00:23:00.496Z,-0.90
2018-12-16T00:25:29.156Z,-0.90
2018-12-16T00:27:58.141Z,-0.90
2018-12-16T00:30:26.630Z,-0.90
2018-12-16T00:32:55.062Z,-0.90
2018-12-16T00:35:24.193Z,-0.90
2018-12-16T00:37:52.843Z,-0.90
2018-12-16T00:40:21.093Z,-0.90
2018-12-16T00:42:49.594Z,-0.90
2018-12-16T00:45:17.797Z,-0.90
2018-12-16T00:47:47.525Z,-0.90
2018-12-16T00:50:15.954Z,-0.80
2018-12-16T00:52:44.183Z,-0.80
2018-12-16T00:55:12.696Z,-0.80
2018-12-16T00:57:40.846Z,-0.90
2018-12-16T01:00:13.192Z,-0.80
2018-12-16T01:02:42.226Z,-0.80
2018-12-16T01:05:11.394Z,-0.70
2018-12-16T01:07:39.721Z,-0.70
2018-12-16T01:10:09.786Z,-0.70
2018-12-16T01:12:37.954Z,-0.60
2018-12-16T01:15:06.514Z,-0.70
2018-12-16T01:17:34.781Z,-0.70
2018-12-16T01:20:03.592Z,-0.60
2018-12-16T01:22:32.197Z,-0.50
2018-12-16T01:25:00.870Z,-0.50
2018-12-16T01:27:29.442Z,-0.50
2018-12-16T01:29:57.707Z,-0.50
2018-12-16T01:32:27.765Z,-0.50
2018-12-16T01:34:56.633Z,-0.50
2018-12-16T01:37:25.955Z,-0.50
2018-12-16T01:39:54.179Z,-0.50
2018-12-16T01:42:22.359Z,-0.50
2018-12-16T01:44:50.674Z,-0.50
2018-12-16T01:47:19.210Z,-0.40
2018-12-16T01:49:47.359Z,-0.50
2018-12-16T01:52:15.698Z,-0.50
2018-12-16T01:54:43.814Z,-0.50
2018-12-16T01:57:12.298Z,-0.50
2018-12-16T01:59:41.234Z,-0.50
2018-12-16T02:02:09.470Z,-0.50
2018-12-16T02:04:38.595Z,-0.50
2018-12-16T02:07:06.871Z,-0.50
2018-12-16T02:09:35.283Z,-0.50
2018-12-16T02:12:04.327Z,-0.60
2018-12-16T02:14:32.536Z,-0.60
2018-12-16T02:17:02.150Z,-0.60
2018-12-16T02:19:30.321Z,-0.70
2018-12-16T02:21:58.782Z,-0.70
2018-12-16T02:24:27.233Z,-0.70
2018-12-16T02:26:55.790Z,-0.70
2018-12-16T02:29:24.653Z,-0.70
2018-12-16T02:31:52.748Z,-0.60
2018-12-16T02:34:20.911Z,-0.60
2018-12-16T02:36:49.026Z,-0.60
2018-12-16T02:39:17.280Z,-0.60
2018-12-16T02:41:45.693Z,-0.60
2018-12-16T02:44:14.787Z,-0.60
2018-12-16T02:46:43.774Z,-0.60
2018-12-16T02:49:12.863Z,-0.50
2018-12-16T02:51:42.087Z,-0.50
2018-12-16T02:54:10.327Z,-0.50
2018-12-16T02:56:38.571Z,-0.50
2018-12-16T02:59:07.496Z,-0.50
2018-12-16T03:01:36.559Z,-0.50
2018-12-16T03:04:05.820Z,-0.50
2018-12-16T03:06:33.902Z,-0.50
2018-12-16T03:09:02.020Z,-0.60
2018-12-16T03:11:30.803Z,-0.60
2018-12-16T03:13:59.069Z,-0.50
2018-12-16T03:16:27.473Z,-0.50
2018-12-16T03:18:56.302Z,-0.60
2018-12-16T03:21:24.789Z,-0.60
2018-12-16T03:23:53.655Z,-0.60
2018-12-16T03:26:22.962Z,-0.50
2018-12-16T03:28:51.761Z,-0.60
2018-12-16T03:33:53.776Z,-0.50
2018-12-16T03:36:21.917Z,-0.50
2018-12-16T03:38:50.353Z,-0.50
2018-12-16T03:41:18.635Z,-0.50
2018-12-16T03:43:46.758Z,-0.50
2018-12-16T03:46:15.370Z,-0.50
2018-12-16T03:48:44.024Z,-0.50
2018-12-16T03:51:12.285Z,-0.50
2018-12-16T03:53:40.577Z,-0.50
2018-12-16T03:56:09.198Z,-0.50
2018-12-16T03:58:43.897Z,-0.50
2018-12-16T04:01:12.954Z,-0.40
2018-12-16T04:03:41.234Z,-0.40
2018-12-16T04:06:09.494Z,-0.40
2018-12-16T04:08:37.599Z,-0.40
2018-12-16T04:11:05.726Z,-0.50
2018-12-16T04:13:33.930Z,-0.50
2018-12-16T04:16:03.170Z,-0.40
2018-12-16T04:18:31.450Z,-0.40
2018-12-16T04:20:59.593Z,-0.40
2018-12-16T04:23:36.334Z,-0.40
2018-12-16T04:26:04.634Z,-0.40
2018-12-16T04:28:32.877Z,-0.30
2018-12-16T04:31:00.978Z,-0.30
2018-12-16T04:33:29.232Z,-0.30
2018-12-16T04:35:57.522Z,-0.20
2018-12-16T04:38:26.154Z,-0.20
2018-12-16T04:40:54.360Z,-0.20
2018-12-16T04:43:23.019Z,-0.20
2018-12-16T04:45:51.514Z,-0.20
2018-12-16T04:48:19.628Z,-0.20
2018-12-16T04:50:47.912Z,-0.20
2018-12-16T04:53:16.665Z,-0.20
2018-12-16T04:55:45.479Z,-0.20
2018-12-16T04:58:13.556Z,-0.20
2018-12-16T05:00:42.952Z,-0.20
2018-12-16T05:03:11.604Z,-0.30
2018-12-16T05:05:40.055Z,-0.40
2018-12-16T05:08:08.169Z,-0.60
2018-12-16T05:10:36.479Z,-0.80
2018-12-16T05:13:04.761Z,-1.00
2018-12-16T05:15:34.582Z,-1.10
2018-12-16T05:18:02.868Z,-1.30
2018-12-16T05:20:31.092Z,-1.40
2018-12-16T05:22:59.733Z,-1.40
2018-12-16T05:25:28.006Z,-1.50
2018-12-16T05:27:56.577Z,-1.40
2018-12-16T05:30:24.868Z,-1.40
2018-12-16T05:32:53.264Z,-1.40
2018-12-16T05:35:21.630Z,-1.40
2018-12-16T05:37:50.070Z,-1.40
2018-12-16T05:40:20.267Z,-1.40
2018-12-16T05:42:49.126Z,-1.40
2018-12-16T05:45:17.578Z,-1.40
2018-12-16T05:47:46.211Z,-1.40
2018-12-16T05:50:14.882Z,-1.30
2018-12-16T05:52:43.366Z,-1.30
2018-12-16T05:55:12.413Z,-1.20
2018-12-16T05:57:40.973Z,-1.30
2018-12-16T06:00:10.782Z,-1.30
2018-12-16T06:02:39.204Z,-1.30
2018-12-16T06:05:07.447Z,-1.10
2018-12-16T06:07:38.610Z,-1.10
2018-12-16T06:10:07.014Z,-1.30
2018-12-16T06:12:35.435Z,-1.40
2018-12-16T06:15:03.713Z,-1.40
2018-12-16T06:17:31.924Z,-1.40
2018-12-16T06:20:00.484Z,-1.30
2018-12-16T06:22:28.597Z,-1.30
2018-12-16T06:24:56.702Z,-1.30
2018-12-16T06:27:25.342Z,-1.20
2018-12-16T06:29:53.936Z,-1.20
2018-12-16T06:32:22.112Z,-1.10
2018-12-16T06:34:50.317Z,-1.00
2018-12-16T06:37:18.656Z,-0.90
2018-12-16T06:39:46.984Z,-0.80
2018-12-16T06:42:15.145Z,-0.60
2018-12-16T06:44:43.381Z,-0.50
2018-12-16T06:47:13.374Z,-0.40
2018-12-16T06:49:41.534Z,-0.30
2018-12-16T06:52:12.283Z,-0.20
2018-12-16T06:54:40.456Z,-0.10
2018-12-16T06:57:08.692Z,-0.10
2018-12-16T06:59:37.283Z,-0.10
2018-12-16T07:02:05.596Z,-0.10
2018-12-16T07:04:33.855Z,-0.10
2018-12-16T07:07:02.073Z,-0.10
2018-12-16T07:09:30.420Z,-0.10
2018-12-16T07:11:59.142Z,-0.10
2018-12-16T07:14:27.504Z,-0.20
2018-12-16T07:16:56.116Z,-0.10
2018-12-16T07:19:24.492Z,-0.10
2018-12-16T07:21:53.613Z,-0.20
2018-12-16T07:24:21.766Z,-0.20
2018-12-16T07:26:50.893Z,-0.20
2018-12-16T07:29:19.313Z,-0.20
2018-12-16T07:31:47.838Z,-0.20
2018-12-16T07:34:16.833Z,-0.20
2018-12-16T07:36:45.178Z,-0.30
2018-12-16T07:39:13.445Z,-0.40
2018-12-16T07:41:42.473Z,-0.40
2018-12-16T07:44:10.652Z,-0.40
2018-12-16T07:46:39.193Z,-0.40
2018-12-16T07:49:07.614Z,-0.40
2018-12-16T07:51:36.004Z,-0.30
2018-12-16T07:54:04.521Z,-0.20
2018-12-16T07:56:32.780Z,-0.20
2018-12-16T07:59:01.049Z,-0.10
2018-12-16T08:01:30.041Z,-0.10
2018-12-16T08:03:58.591Z,-0.10
2018-12-16T08:06:26.931Z,0.00
2018-12-16T08:08:55.319Z,0.10
2018-12-16T08:11:24.477Z,0.20
2018-12-16T08:13:54.817Z,0.20
2018-12-16T08:16:23.696Z,0.20
2018-12-16T08:18:52.250Z,0.20
2018-12-16T08:21:20.626Z,0.30
2018-12-16T08:23:48.867Z,0.40
2018-12-16T08:26:17.230Z,0.50
2018-12-16T08:28:45.728Z,0.60
2018-12-16T08:31:13.992Z,0.60
2018-12-16T08:33:42.104Z,0.60
2018-12-16T08:36:10.373Z,0.70
2018-12-16T08:38:39.021Z,0.70
2018-12-16T08:41:07.503Z,0.70
2018-12-16T08:43:36.017Z,0.80
2018-12-16T08:46:04.831Z,0.90
2018-12-16T08:48:33.028Z,0.90
2018-12-16T08:51:01.795Z,1.00
2018-12-16T08:53:30.157Z,1.10
2018-12-16T08:55:58.396Z,1.20
2018-12-16T08:58:27.634Z,1.30
2018-12-16T09:00:56.334Z,1.30
2018-12-16T09:03:25.051Z,1.30
2018-12-16T09:05:54.007Z,1.30
2018-12-16T09:08:22.223Z,1.30
2018-12-16T09:10:50.422Z,1.40
2018-12-16T09:13:18.787Z,1.40
2018-12-16T09:15:47.190Z,1.50
2018-12-16T09:18:15.581Z,1.50
2018-12-16T09:20:44.522Z,1.60
2018-12-16T09:23:12.941Z,1.60
2018-12-16T09:25:41.134Z,1.80
2018-12-16T09:28:09.756Z,1.90
2018-12-16T09:30:37.824Z,2.10
2018-12-16T09:33:06.920Z,2.20
2018-12-16T09:35:36.061Z,2.30
2018-12-16T09:38:04.342Z,2.40
2018-12-16T09:40:33.782Z,2.40
2018-12-16T09:43:02.081Z,2.50
2018-12-16T09:45:30.806Z,2.50
2018-12-16T09:47:59.145Z,2.50
2018-12-16T09:50:27.592Z,2.50
2018-12-16T09:52:55.680Z,2.40
2018-12-16T09:55:23.958Z,2.30
2018-12-16T09:57:52.289Z,2.20
2018-12-16T10:00:20.869Z,2.30
2018-12-16T10:02:49.055Z,2.20
2018-12-16T10:05:17.384Z,2.00
2018-12-16T10:07:46.384Z,2.10
2018-12-16T10:10:14.596Z,2.10
2018-12-16T10:12:43.032Z,2.20
2018-12-16T10:15:11.353Z,2.30
2018-12-16T10:17:39.661Z,2.40
2018-12-16T10:20:09.688Z,2.30
2018-12-16T10:22:37.876Z,2.00
2018-12-16T10:25:06.126Z,1.80
2018-12-16T10:27:34.602Z,1.60
2018-12-16T10:30:02.882Z,1.50
2018-12-16T10:32:32.472Z,1.50
2018-12-16T10:35:01.363Z,1.60
2018-12-16T10:37:29.873Z,1.70
2018-12-16T10:39:58.058Z,1.90
2018-12-16T10:42:26.491Z,1.90
2018-12-16T10:44:54.789Z,1.40
2018-12-16T10:47:23.512Z,1.40
2018-12-16T10:49:52.085Z,1.70
2018-12-16T10:52:20.408Z,1.50
2018-12-16T10:54:49.339Z,1.80
2018-12-16T10:57:17.644Z,1.90
2018-12-16T10:59:46.277Z,1.40
2018-12-16T11:02:14.511Z,1.20
2018-12-16T11:04:42.776Z,1.10
2018-12-16T11:07:11.853Z,0.90
2018-12-16T11:09:40.260Z,0.90
2018-12-16T11:12:08.587Z,1.10
2018-12-16T11:14:36.822Z,1.10
2018-12-16T11:17:05.124Z,1.40
2018-12-16T11:19:33.330Z,1.20
2018-12-16T11:22:01.682Z,0.90
2018-12-16T11:24:29.819Z,0.50
2018-12-16T11:26:59.069Z,0.40
2018-12-16T11:29:27.348Z,0.30
2018-12-16T11:31:55.740Z,0.30
2018-12-16T11:34:24.785Z,0.60
2018-12-16T11:36:53.110Z,0.70
2018-12-16T11:39:21.484Z,0.70
2018-12-16T11:41:49.693Z,0.70
2018-12-16T11:44:18.544Z,0.80
2018-12-16T11:46:47.470Z,1.00
2018-12-16T11:49:15.689Z,1.10
2018-12-16T11:51:45.525Z,1.10
2018-12-16T11:54:13.760Z,1.20
2018-12-16T11:56:42.114Z,1.00
2018-12-16T11:59:12.160Z,1.00
2018-12-16T12:01:40.318Z,0.80
2018-12-16T12:04:08.652Z,0.60
2018-12-16T12:06:36.866Z,0.40
2018-12-16T12:09:05.968Z,0.30
2018-12-16T12:11:34.339Z,0.40
2018-12-16T12:14:02.594Z,0.60
2018-12-16T12:16:30.829Z,0.70
2018-12-16T12:19:00.981Z,0.70
2018-12-16T12:21:29.383Z,0.70
2018-12-16T12:23:58.582Z,0.50
2018-12-16T12:26:26.852Z,0.50
2018-12-16T12:28:55.448Z,0.50
2018-12-16T12:31:24.118Z,0.30
2018-12-16T12:33:52.398Z,0.30
2018-12-16T12:36:21.433Z,0.50
2018-12-16T12:38:49.651Z,0.40
2018-12-16T12:41:18.033Z,0.70
2018-12-16T12:43:46.171Z,0.60
2018-12-16T12:46:14.524Z,0.70
2018-12-16T12:48:43.699Z,0.70
2018-12-16T12:51:11.895Z,0.70
2018-12-16T12:53:41.478Z,0.40
2018-12-16T12:56:09.861Z,0.40
2018-12-16T12:58:38.550Z,0.30
2018-12-16T13:01:06.963Z,0.40
2018-12-16T13:03:35.122Z,0.40
2018-12-16T13:06:03.457Z,0.40
2018-12-16T13:08:31.590Z,0.50
2018-12-16T13:10:59.802Z,0.60
2018-12-16T13:13:27.957Z,0.60
2018-12-16T13:15:56.223Z,0.50
2018-12-16T13:18:25.191Z,0.50
2018-12-16T13:20:53.773Z,0.50
2018-12-16T13:23:23.115Z,0.40
2018-12-16T13:26:04.844Z,0.40
2018-12-16T13:28:33.751Z,0.40
2018-12-16T13:31:02.244Z,0.40
2018-12-16T13:33:30.461Z,0.30
2018-12-16T13:35:59.066Z,0.30
2018-12-16T13:38:27.595Z,0.20
2018-12-16T13:40:55.782Z,0.10
2018-12-16T13:43:24.090Z,0.10
2018-12-16T13:45:52.430Z,0.20
2018-12-16T13:48:20.742Z,0.20
2018-12-16T13:50:48.894Z,0.30
2018-12-16T13:53:17.304Z,0.40
2018-12-16T13:55:47.329Z,0.30
2018-12-16T13:58:16.387Z,0.30
2018-12-16T14:00:45.137Z,0.20
2018-12-16T14:03:13.462Z,0.30
2018-12-16T14:05:46.642Z,0.20
2018-12-16T14:08:13.975Z,0.30
2018-12-16T14:10:42.170Z,0.40
2018-12-16T14:13:10.427Z,0.20
2018-12-16T14:15:38.648Z,0.20
2018-12-16T14:18:07.907Z,0.20
2018-12-16T14:20:36.249Z,0.20
2018-12-16T14:23:04.891Z,0.20
2018-12-16T14:25:33.012Z,0.20
2018-12-16T14:28:01.627Z,0.20
2018-12-16T14:30:30.418Z,0.30
2018-12-16T14:32:58.926Z,0.40
2018-12-16T14:35:27.208Z,0.40
2018-12-16T14:37:56.790Z,0.60
2018-12-16T14:40:25.571Z,0.50
2018-12-16T14:42:54.879Z,0.40
2018-12-16T14:45:23.272Z,0.40
2018-12-16T14:47:51.645Z,0.40
2018-12-16T14:50:19.983Z,0.30
2018-12-16T14:52:48.479Z,0.30
2018-12-16T14:55:16.966Z,0.40
2018-12-16T14:57:45.212Z,0.40
2018-12-16T15:00:14.553Z,0.50
2018-12-16T15:02:42.876Z,0.50
2018-12-16T15:05:11.385Z,0.50
2018-12-16T15:07:39.888Z,0.50
2018-12-16T15:10:09.941Z,0.60
2018-12-16T15:12:38.235Z,0.70
2018-12-16T15:15:08.332Z,0.80
2018-12-16T15:17:42.792Z,0.90
2018-12-16T15:20:08.265Z,0.80
2018-12-16T15:22:36.522Z,0.70
2018-12-16T15:25:05.530Z,0.80
2018-12-16T15:27:34.555Z,0.70
2018-12-16T15:30:03.381Z,0.70
2018-12-16T15:32:32.181Z,0.80
2018-12-16T15:35:00.447Z,0.70
2018-12-16T15:37:29.278Z,0.70
2018-12-16T15:39:58.082Z,0.90
2018-12-16T15:42:26.342Z,0.90
2018-12-16T15:44:54.485Z,0.80
2018-12-16T15:47:22.651Z,0.70
2018-12-16T15:49:50.828Z,0.80
2018-12-16T15:52:19.356Z,0.90
2018-12-16T15:54:48.214Z,0.80
2018-12-16T15:57:16.553Z,0.70
2018-12-16T15:59:45.674Z,0.70
2018-12-16T16:02:13.960Z,0.80
2018-12-16T16:04:42.267Z,0.80
2018-12-16T16:07:10.479Z,0.80
2018-12-16T16:09:38.592Z,0.90
2018-12-16T16:12:06.911Z,0.90
2018-12-16T16:14:35.059Z,0.90
2018-12-16T16:17:03.513Z,0.90
2018-12-16T16:19:31.974Z,1.00
2018-12-16T16:22:01.585Z,1.00
2018-12-16T16:24:29.710Z,1.00
2018-12-16T16:26:58.453Z,1.00
2018-12-16T16:29:27.083Z,1.00
2018-12-16T16:31:55.211Z,0.90
2018-12-16T16:34:23.441Z,0.90
2018-12-16T16:36:51.600Z,0.90
2018-12-16T16:39:20.985Z,0.90
2018-12-16T16:41:50.193Z,0.90
2018-12-16T16:44:18.389Z,0.90
2018-12-16T16:46:46.601Z,1.00
2018-12-16T16:49:15.069Z,1.00
2018-12-16T16:51:43.174Z,1.10
2018-12-16T16:54:12.062Z,1.20
2018-12-16T16:56:41.122Z,1.30
2018-12-16T16:59:10.431Z,1.30
2018-12-16T17:01:38.807Z,1.40
2018-12-16T17:04:07.374Z,1.40
2018-12-16T17:06:36.105Z,1.40
2018-12-16T17:09:07.398Z,1.40
2018-12-16T17:11:35.694Z,1.40
2018-12-16T17:14:04.227Z,1.50
2018-12-16T17:16:33.106Z,1.60
2018-12-16T17:19:01.866Z,1.70
2018-12-16T17:21:30.788Z,1.90
2018-12-16T17:23:59.889Z,2.00
2018-12-16T17:26:30.195Z,2.00
2018-12-16T17:28:58.786Z,2.00
2018-12-16T17:31:27.006Z,2.00
2018-12-16T17:33:56.454Z,1.90
2018-12-16T17:36:25.453Z,2.00
2018-12-16T17:38:54.717Z,2.00
2018-12-16T17:41:23.001Z,2.10
2018-12-16T17:43:51.202Z,2.10
2018-12-16T17:46:19.337Z,2.20
2018-12-16T17:48:47.747Z,2.30
2018-12-16T17:51:17.350Z,2.30
2018-12-16T17:53:45.503Z,2.20
2018-12-16T17:56:13.755Z,1.90
2018-12-16T17:58:42.108Z,1.80
2018-12-16T18:01:11.186Z,1.60
2018-12-16T18:03:39.653Z,1.70
2018-12-16T18:06:07.953Z,1.60
2018-12-16T18:08:36.331Z,1.70
2018-12-16T18:11:04.489Z,1.80
2018-12-16T18:13:32.791Z,1.80
2018-12-16T18:16:01.362Z,1.60
2018-12-16T18:18:29.560Z,1.60
2018-12-16T18:20:57.751Z,1.70
2018-12-16T18:23:29.674Z,1.80
2018-12-16T18:25:56.720Z,1.80
2018-12-16T18:28:26.005Z,1.90
2018-12-16T18:30:54.244Z,2.00
2018-12-16T18:33:22.557Z,2.10
2018-12-16T18:35:51.162Z,2.10
2018-12-16T18:38:19.515Z,2.20
2018-12-16T18:40:47.969Z,2.20
2018-12-16T18:43:16.111Z,2.20
2018-12-16T18:45:44.630Z,2.30
2018-12-16T18:48:13.934Z,2.40
2018-12-16T18:50:43.016Z,2.40
2018-12-16T18:53:11.229Z,2.50
2018-12-16T18:55:39.486Z,2.50
2018-12-16T18:58:08.602Z,2.50
2018-12-16T19:00:36.824Z,2.40
2018-12-16T19:03:04.959Z,2.30
2018-12-16T19:05:33.134Z,2.20
2018-12-16T19:08:01.290Z,2.20
2018-12-16T19:10:30.481Z,2.30
2018-12-16T19:12:58.702Z,2.30
2018-12-16T19:15:27.666Z,2.30
2018-12-16T19:17:55.965Z,2.40
2018-12-16T19:20:24.860Z,2.50
2018-12-16T19:22:53.049Z,2.20
2018-12-16T19:25:21.232Z,2.20
2018-12-16T19:27:55.349Z,2.30
2018-12-16T19:30:23.567Z,2.50
2018-12-16T19:32:51.728Z,2.60
2018-12-16T19:35:21.279Z,2.60
2018-12-16T19:37:49.954Z,2.60
2018-12-16T19:40:18.360Z,2.50
2018-12-16T19:42:46.533Z,2.60
2018-12-16T19:45:14.741Z,2.50
2018-12-16T19:47:49.529Z,2.50
2018-12-16T19:50:13.933Z,2.50
2018-12-16T19:52:42.131Z,2.40
2018-12-16T19:55:10.862Z,2.50
2018-12-16T19:57:39.175Z,2.60
2018-12-16T20:00:08.755Z,2.60
2018-12-16T20:02:37.321Z,2.60
2018-12-16T20:05:09.115Z,2.60
2018-12-16T20:07:37.216Z,2.50
2018-12-16T20:10:05.923Z,2.40
2018-12-16T20:12:34.802Z,2.50
2018-12-16T20:15:03.025Z,2.50
2018-12-16T20:17:32.134Z,2.60
2018-12-16T20:20:00.456Z,2.70
2018-12-16T20:22:28.675Z,2.70
2018-12-16T20:24:57.886Z,2.70
2018-12-16T20:27:25.999Z,2.70
2018-12-16T20:29:55.363Z,2.70
2018-12-16T20:32:23.570Z,2.80
2018-12-16T20:34:52.443Z,2.60
2018-12-16T20:37:21.092Z,2.60
2018-12-16T20:39:49.304Z,2.60
2018-12-16T20:42:17.412Z,2.50
2018-12-16T20:44:46.453Z,2.60
2018-12-16T20:47:14.574Z,2.60
2018-12-16T20:49:43.256Z,2.70
2018-12-16T20:52:11.354Z,2.80
2018-12-16T20:54:39.469Z,2.80
2018-12-16T20:57:07.724Z,2.80
2018-12-16T20:59:37.186Z,2.80
2018-12-16T21:02:05.624Z,2.90
2018-12-16T21:04:33.762Z,2.90
2018-12-16T21:07:02.114Z,2.90
2018-12-16T21:09:30.306Z,2.90
2018-12-16T21:12:00.927Z,2.90
2018-12-16T21:14:35.017Z,2.90
2018-12-16T21:17:08.886Z,2.70
2018-12-16T21:19:37.155Z,2.70
2018-12-16T21:22:10.687Z,2.70
2018-12-16T21:24:39.198Z,2.70
2018-12-16T21:27:08.118Z,2.70
2018-12-16T21:29:36.336Z,2.80
2018-12-16T21:32:07.407Z,2.80
2018-12-16T21:34:35.805Z,2.80
2018-12-16T21:37:04.142Z,2.80
2018-12-16T21:39:32.884Z,2.80
2018-12-16T21:42:01.038Z,2.80
2018-12-16T21:44:29.171Z,2.70
2018-12-16T21:46:57.403Z,2.70
2018-12-16T21:49:26.173Z,2.70
2018-12-16T21:51:54.553Z,2.70
2018-12-16T21:54:22.683Z,2.70
2018-12-16T21:56:51.005Z,2.70
2018-12-16T21:59:19.501Z,2.70
2018-12-16T22:01:47.864Z,2.70
2018-12-16T22:04:15.979Z,2.50
2018-12-16T22:06:44.170Z,2.20
2018-12-16T22:09:13.049Z,2.10
2018-12-16T22:11:41.200Z,2.10
2018-12-16T22:14:09.931Z,2.10
2018-12-16T22:16:38.934Z,2.10
2018-12-16T22:19:07.762Z,2.30
2018-12-16T22:21:36.094Z,2.30
2018-12-16T22:24:04.342Z,2.40
2018-12-16T22:26:32.582Z,2.50
2018-12-16T22:29:01.750Z,2.50
2018-12-16T22:31:30.031Z,2.60
2018-12-16T22:33:58.674Z,2.60
2018-12-16T22:36:28.271Z,2.70
2018-12-16T22:38:56.546Z,2.60
2018-12-16T22:41:24.720Z,2.60
2018-12-16T22:43:53.277Z,2.70
2018-12-16T22:46:22.130Z,2.70
2018-12-16T22:48:50.541Z,2.70
2018-12-16T22:51:19.242Z,2.80
2018-12-16T22:53:47.449Z,2.80
2018-12-16T22:56:15.678Z,2.60
2018-12-16T22:58:43.978Z,2.70
2018-12-16T23:01:17.678Z,2.70
2018-12-16T23:03:46.097Z,2.80
2018-12-16T23:06:15.349Z,2.80
2018-12-16T23:08:43.850Z,2.70
2018-12-16T23:11:12.423Z,2.70
2018-12-16T23:13:41.354Z,2.70
2018-12-16T23:16:09.630Z,2.70
2018-12-16T23:18:37.818Z,2.50
2018-12-16T23:21:06.995Z,2.60
2018-12-16T23:23:35.405Z,2.50
2018-12-16T23:26:03.941Z,2.60
2018-12-16T23:28:32.840Z,2.60
2018-12-16T23:31:01.305Z,2.70
2018-12-16T23:33:31.443Z,2.70
2018-12-16T23:35:59.704Z,2.80
2018-12-16T23:38:28.008Z,2.80
2018-12-16T23:40:56.589Z,2.60
2018-12-16T23:43:24.870Z,2.60
2018-12-16T23:45:53.165Z,2.60
2018-12-16T23:48:21.798Z,2.70
2018-12-16T23:50:51.559Z,2.80
2018-12-16T23:53:20.017Z,2.80
2018-12-16T23:55:48.427Z,2.80
2018-12-16T23:58:18.237Z,2.80
